sensor_id;sensor_type;location;lat;lon;timestamp;P1;durP1;ratioP1;P2;durP2;ratioP2
12312;SDS011;6220;53.580;9.758;2023-11-18T00:00:29;4.00;;;3.60;;
12312;SDS011;6220;53.580;9.758;2023-11-18T00:02:54;5.07;;;4.47;;
12312;SDS011;6220;53.580;9.758;2023-11-18T00:05:19;4.67;;;4.27;;
12312;SDS011;6220;53.580;9.758;2023-11-18T00:07:46;5.97;;;4.43;;
12312;SDS011;6220;53.580;9.758;2023-11-18T00:10:11;4.70;;;4.20;;
12312;SDS011;6220;53.580;9.758;2023-11-18T00:12:37;5.30;;;4.10;;
12312;SDS011;6220;53.580;9.758;2023-11-18T00:15:06;4.33;;;3.77;;
12312;SDS011;6220;53.580;9.758;2023-11-18T00:17:34;5.33;;;4.40;;
12312;SDS011;6220;53.580;9.758;2023-11-18T00:19:59;4.70;;;4.10;;
12312;SDS011;6220;53.580;9.758;2023-11-18T00:22:24;4.20;;;3.80;;
12312;SDS011;6220;53.580;9.758;2023-11-18T00:24:50;4.63;;;4.13;;
12312;SDS011;6220;53.580;9.758;2023-11-18T00:27:17;4.47;;;4.07;;
12312;SDS011;6220;53.580;9.758;2023-11-18T00:29:42;5.40;;;4.37;;
12312;SDS011;6220;53.580;9.758;2023-11-18T00:32:08;5.67;;;4.20;;
12312;SDS011;6220;53.580;9.758;2023-11-18T00:34:34;5.77;;;4.47;;
12312;SDS011;6220;53.580;9.758;2023-11-18T00:36:59;4.40;;;4.00;;
12312;SDS011;6220;53.580;9.758;2023-11-18T00:39:25;4.33;;;3.87;;
12312;SDS011;6220;53.580;9.758;2023-11-18T00:41:51;4.27;;;3.87;;
12312;SDS011;6220;53.580;9.758;2023-11-18T00:44:19;5.10;;;4.23;;
12312;SDS011;6220;53.580;9.758;2023-11-18T00:46:44;4.87;;;4.37;;
12312;SDS011;6220;53.580;9.758;2023-11-18T00:49:09;4.93;;;4.33;;
12312;SDS011;6220;53.580;9.758;2023-11-18T00:51:36;5.17;;;4.07;;
12312;SDS011;6220;53.580;9.758;2023-11-18T00:54:02;4.77;;;4.03;;
12312;SDS011;6220;53.580;9.758;2023-11-18T00:56:30;6.10;;;4.10;;
12312;SDS011;6220;53.580;9.758;2023-11-18T00:58:56;4.60;;;4.10;;
12312;SDS011;6220;53.580;9.758;2023-11-18T01:01:21;5.00;;;4.50;;
12312;SDS011;6220;53.580;9.758;2023-11-18T01:03:47;4.67;;;4.23;;
12312;SDS011;6220;53.580;9.758;2023-11-18T01:06:13;4.53;;;3.90;;
12312;SDS011;6220;53.580;9.758;2023-11-18T01:08:40;6.00;;;5.37;;
12312;SDS011;6220;53.580;9.758;2023-11-18T01:11:08;7.10;;;5.53;;
12312;SDS011;6220;53.580;9.758;2023-11-18T01:13:35;4.90;;;4.40;;
12312;SDS011;6220;53.580;9.758;2023-11-18T01:16:00;5.07;;;4.57;;
12312;SDS011;6220;53.580;9.758;2023-11-18T01:18:26;5.57;;;4.20;;
12312;SDS011;6220;53.580;9.758;2023-11-18T01:20:52;4.70;;;4.30;;
12312;SDS011;6220;53.580;9.758;2023-11-18T01:23:17;4.60;;;4.20;;
12312;SDS011;6220;53.580;9.758;2023-11-18T01:25:43;5.73;;;4.37;;
12312;SDS011;6220;53.580;9.758;2023-11-18T01:28:11;4.47;;;4.07;;
12312;SDS011;6220;53.580;9.758;2023-11-18T01:30:36;5.37;;;4.70;;
12312;SDS011;6220;53.580;9.758;2023-11-18T01:33:02;5.10;;;4.60;;
12312;SDS011;6220;53.580;9.758;2023-11-18T01:35:27;5.10;;;4.60;;
12312;SDS011;6220;53.580;9.758;2023-11-18T01:37:53;5.47;;;4.83;;
12312;SDS011;6220;53.580;9.758;2023-11-18T01:40:19;5.10;;;4.07;;
12312;SDS011;6220;53.580;9.758;2023-11-18T01:42:45;5.10;;;4.60;;
12312;SDS011;6220;53.580;9.758;2023-11-18T01:45:12;6.73;;;4.30;;
12312;SDS011;6220;53.580;9.758;2023-11-18T01:47:39;5.40;;;4.70;;
12312;SDS011;6220;53.580;9.758;2023-11-18T01:50:05;6.33;;;4.83;;
12312;SDS011;6220;53.580;9.758;2023-11-18T01:52:31;4.77;;;4.20;;
12312;SDS011;6220;53.580;9.758;2023-11-18T01:54:58;6.57;;;4.53;;
12312;SDS011;6220;53.580;9.758;2023-11-18T01:57:26;6.00;;;4.60;;
12312;SDS011;6220;53.580;9.758;2023-11-18T01:59:53;5.70;;;5.00;;
12312;SDS011;6220;53.580;9.758;2023-11-18T02:02:19;5.23;;;4.73;;
12312;SDS011;6220;53.580;9.758;2023-11-18T02:04:47;6.30;;;4.60;;
12312;SDS011;6220;53.580;9.758;2023-11-18T02:07:14;5.13;;;4.63;;
12312;SDS011;6220;53.580;9.758;2023-11-18T02:09:40;5.13;;;4.57;;
12312;SDS011;6220;53.580;9.758;2023-11-18T02:14:53;5.80;;;5.20;;
12312;SDS011;6220;53.580;9.758;2023-11-18T02:17:21;5.33;;;4.83;;
12312;SDS011;6220;53.580;9.758;2023-11-18T02:19:50;5.60;;;5.03;;
12312;SDS011;6220;53.580;9.758;2023-11-18T02:22:17;5.27;;;4.53;;
12312;SDS011;6220;53.580;9.758;2023-11-18T02:24:42;5.50;;;5.00;;
12312;SDS011;6220;53.580;9.758;2023-11-18T02:27:08;5.67;;;4.50;;
12312;SDS011;6220;53.580;9.758;2023-11-18T02:29:39;5.23;;;4.73;;
12312;SDS011;6220;53.580;9.758;2023-11-18T02:34:58;9.30;;;5.27;;
12312;SDS011;6220;53.580;9.758;2023-11-18T02:37:36;5.40;;;4.53;;
12312;SDS011;6220;53.580;9.758;2023-11-18T02:40:07;6.47;;;5.07;;
12312;SDS011;6220;53.580;9.758;2023-11-18T02:42:39;5.83;;;4.90;;
12312;SDS011;6220;53.580;9.758;2023-11-18T02:45:05;5.77;;;4.97;;
12312;SDS011;6220;53.580;9.758;2023-11-18T02:47:33;5.07;;;4.57;;
12312;SDS011;6220;53.580;9.758;2023-11-18T02:49:58;6.77;;;5.13;;
12312;SDS011;6220;53.580;9.758;2023-11-18T02:52:44;6.00;;;5.07;;
12312;SDS011;6220;53.580;9.758;2023-11-18T02:55:09;5.30;;;4.80;;
12312;SDS011;6220;53.580;9.758;2023-11-18T02:57:36;6.33;;;5.70;;
12312;SDS011;6220;53.580;9.758;2023-11-18T03:00:01;5.53;;;5.03;;
12312;SDS011;6220;53.580;9.758;2023-11-18T03:02:29;5.77;;;5.27;;
12312;SDS011;6220;53.580;9.758;2023-11-18T03:04:57;6.37;;;5.63;;
12312;SDS011;6220;53.580;9.758;2023-11-18T03:07:23;5.90;;;5.30;;
12312;SDS011;6220;53.580;9.758;2023-11-18T03:09:48;7.03;;;5.60;;
12312;SDS011;6220;53.580;9.758;2023-11-18T03:12:14;6.30;;;5.70;;
12312;SDS011;6220;53.580;9.758;2023-11-18T03:14:39;6.07;;;5.47;;
12312;SDS011;6220;53.580;9.758;2023-11-18T03:17:04;5.67;;;5.10;;
12312;SDS011;6220;53.580;9.758;2023-11-18T03:19:34;6.20;;;5.60;;
12312;SDS011;6220;53.580;9.758;2023-11-18T03:22:00;7.80;;;5.67;;
12312;SDS011;6220;53.580;9.758;2023-11-18T03:24:26;6.70;;;5.60;;
12312;SDS011;6220;53.580;9.758;2023-11-18T03:26:53;6.10;;;5.50;;
12312;SDS011;6220;53.580;9.758;2023-11-18T03:29:19;6.30;;;5.70;;
12312;SDS011;6220;53.580;9.758;2023-11-18T03:31:45;5.97;;;5.30;;
12312;SDS011;6220;53.580;9.758;2023-11-18T03:34:14;6.17;;;5.43;;
12312;SDS011;6220;53.580;9.758;2023-11-18T03:36:40;5.93;;;5.30;;
12312;SDS011;6220;53.580;9.758;2023-11-18T03:39:06;5.97;;;5.37;;
12312;SDS011;6220;53.580;9.758;2023-11-18T03:41:35;6.57;;;5.87;;
12312;SDS011;6220;53.580;9.758;2023-11-18T03:44:02;7.87;;;6.43;;
12312;SDS011;6220;53.580;9.758;2023-11-18T03:46:28;6.73;;;5.90;;
12312;SDS011;6220;53.580;9.758;2023-11-18T03:48:59;7.37;;;6.53;;
12312;SDS011;6220;53.580;9.758;2023-11-18T03:51:27;6.50;;;5.80;;
12312;SDS011;6220;53.580;9.758;2023-11-18T03:53:53;7.10;;;6.40;;
12312;SDS011;6220;53.580;9.758;2023-11-18T03:56:19;6.70;;;6.00;;
12312;SDS011;6220;53.580;9.758;2023-11-18T03:58:45;6.37;;;5.77;;
12312;SDS011;6220;53.580;9.758;2023-11-18T04:01:22;6.90;;;6.23;;
12312;SDS011;6220;53.580;9.758;2023-11-18T04:03:48;7.13;;;6.43;;
12312;SDS011;6220;53.580;9.758;2023-11-18T04:06:15;6.83;;;6.13;;
12312;SDS011;6220;53.580;9.758;2023-11-18T04:08:45;6.93;;;6.23;;
12312;SDS011;6220;53.580;9.758;2023-11-18T04:11:11;7.63;;;6.53;;
12312;SDS011;6220;53.580;9.758;2023-11-18T04:13:36;6.83;;;6.13;;
12312;SDS011;6220;53.580;9.758;2023-11-18T04:16:02;6.40;;;5.70;;
12312;SDS011;6220;53.580;9.758;2023-11-18T04:18:28;7.33;;;5.90;;
12312;SDS011;6220;53.580;9.758;2023-11-18T04:20:54;6.20;;;5.60;;
12312;SDS011;6220;53.580;9.758;2023-11-18T04:23:19;6.77;;;6.00;;
12312;SDS011;6220;53.580;9.758;2023-11-18T04:25:45;6.60;;;5.90;;
12312;SDS011;6220;53.580;9.758;2023-11-18T04:28:11;8.43;;;6.30;;
12312;SDS011;6220;53.580;9.758;2023-11-18T04:30:36;7.83;;;6.80;;
12312;SDS011;6220;53.580;9.758;2023-11-18T04:33:01;7.57;;;6.87;;
12312;SDS011;6220;53.580;9.758;2023-11-18T04:35:27;8.13;;;6.73;;
12312;SDS011;6220;53.580;9.758;2023-11-18T04:37:52;7.33;;;6.53;;
12312;SDS011;6220;53.580;9.758;2023-11-18T04:40:18;7.47;;;6.00;;
12312;SDS011;6220;53.580;9.758;2023-11-18T04:42:43;8.53;;;6.50;;
12312;SDS011;6220;53.580;9.758;2023-11-18T04:45:09;9.70;;;7.20;;
12312;SDS011;6220;53.580;9.758;2023-11-18T04:47:34;7.70;;;6.90;;
12312;SDS011;6220;53.580;9.758;2023-11-18T04:50:01;7.50;;;6.80;;
12312;SDS011;6220;53.580;9.758;2023-11-18T04:52:27;7.60;;;6.80;;
12312;SDS011;6220;53.580;9.758;2023-11-18T04:54:53;7.57;;;6.87;;
12312;SDS011;6220;53.580;9.758;2023-11-18T04:57:19;7.63;;;6.83;;
12312;SDS011;6220;53.580;9.758;2023-11-18T04:59:45;7.17;;;6.33;;
12312;SDS011;6220;53.580;9.758;2023-11-18T05:02:10;8.23;;;7.10;;
12312;SDS011;6220;53.580;9.758;2023-11-18T05:04:37;9.10;;;6.70;;
12312;SDS011;6220;53.580;9.758;2023-11-18T05:07:02;7.03;;;6.30;;
12312;SDS011;6220;53.580;9.758;2023-11-18T05:09:29;8.23;;;7.43;;
12312;SDS011;6220;53.580;9.758;2023-11-18T05:11:54;8.00;;;7.10;;
12312;SDS011;6220;53.580;9.758;2023-11-18T05:14:21;7.60;;;6.83;;
12312;SDS011;6220;53.580;9.758;2023-11-18T05:16:49;8.23;;;7.43;;
12312;SDS011;6220;53.580;9.758;2023-11-18T05:19:14;7.57;;;6.77;;
12312;SDS011;6220;53.580;9.758;2023-11-18T05:21:41;7.93;;;6.67;;
12312;SDS011;6220;53.580;9.758;2023-11-18T05:24:08;7.57;;;6.77;;
12312;SDS011;6220;53.580;9.758;2023-11-18T05:26:34;7.90;;;7.10;;
12312;SDS011;6220;53.580;9.758;2023-11-18T05:29:00;7.50;;;6.77;;
12312;SDS011;6220;53.580;9.758;2023-11-18T05:31:25;7.97;;;6.87;;
12312;SDS011;6220;53.580;9.758;2023-11-18T05:33:50;8.77;;;7.70;;
12312;SDS011;6220;53.580;9.758;2023-11-18T05:36:16;8.00;;;7.20;;
12312;SDS011;6220;53.580;9.758;2023-11-18T05:38:42;7.67;;;6.43;;
12312;SDS011;6220;53.580;9.758;2023-11-18T05:41:08;8.17;;;7.37;;
12312;SDS011;6220;53.580;9.758;2023-11-18T05:43:41;7.97;;;7.17;;
12312;SDS011;6220;53.580;9.758;2023-11-18T05:46:16;8.03;;;7.23;;
12312;SDS011;6220;53.580;9.758;2023-11-18T05:48:49;10.53;;;8.10;;
12312;SDS011;6220;53.580;9.758;2023-11-18T05:51:18;8.50;;;6.97;;
12312;SDS011;6220;53.580;9.758;2023-11-18T05:53:45;7.97;;;6.97;;
12312;SDS011;6220;53.580;9.758;2023-11-18T05:56:11;8.20;;;7.40;;
12312;SDS011;6220;53.580;9.758;2023-11-18T05:58:37;10.13;;;7.10;;
12312;SDS011;6220;53.580;9.758;2023-11-18T06:01:04;9.80;;;7.67;;
12312;SDS011;6220;53.580;9.758;2023-11-18T06:03:32;8.17;;;7.10;;
12312;SDS011;6220;53.580;9.758;2023-11-18T06:05:57;9.23;;;7.77;;
12312;SDS011;6220;53.580;9.758;2023-11-18T06:08:23;8.00;;;7.20;;
12312;SDS011;6220;53.580;9.758;2023-11-18T06:10:49;8.40;;;7.50;;
12312;SDS011;6220;53.580;9.758;2023-11-18T06:13:17;7.93;;;6.80;;
12312;SDS011;6220;53.580;9.758;2023-11-18T06:15:42;8.93;;;7.70;;
12312;SDS011;6220;53.580;9.758;2023-11-18T06:18:08;8.13;;;7.33;;
12312;SDS011;6220;53.580;9.758;2023-11-18T06:20:34;10.17;;;7.77;;
12312;SDS011;6220;53.580;9.758;2023-11-18T06:23:00;8.70;;;7.80;;
12312;SDS011;6220;53.580;9.758;2023-11-18T06:25:26;8.77;;;7.67;;
12312;SDS011;6220;53.580;9.758;2023-11-18T06:27:51;8.87;;;7.43;;
12312;SDS011;6220;53.580;9.758;2023-11-18T06:30:19;8.43;;;7.00;;
12312;SDS011;6220;53.580;9.758;2023-11-18T06:32:45;9.10;;;7.57;;
12312;SDS011;6220;53.580;9.758;2023-11-18T06:35:13;10.20;;;7.93;;
12312;SDS011;6220;53.580;9.758;2023-11-18T06:37:39;9.53;;;7.73;;
12312;SDS011;6220;53.580;9.758;2023-11-18T06:40:05;8.13;;;7.10;;
12312;SDS011;6220;53.580;9.758;2023-11-18T06:42:41;9.77;;;7.60;;
12312;SDS011;6220;53.580;9.758;2023-11-18T06:45:12;8.43;;;7.53;;
12312;SDS011;6220;53.580;9.758;2023-11-18T06:47:38;8.87;;;7.47;;
12312;SDS011;6220;53.580;9.758;2023-11-18T06:50:09;8.73;;;7.37;;
12312;SDS011;6220;53.580;9.758;2023-11-18T06:52:39;9.03;;;7.67;;
12312;SDS011;6220;53.580;9.758;2023-11-18T06:55:06;9.20;;;7.83;;
12312;SDS011;6220;53.580;9.758;2023-11-18T06:57:32;9.67;;;8.17;;
12312;SDS011;6220;53.580;9.758;2023-11-18T06:59:58;9.87;;;8.07;;
12312;SDS011;6220;53.580;9.758;2023-11-18T07:02:24;9.83;;;7.80;;
12312;SDS011;6220;53.580;9.758;2023-11-18T07:04:50;8.40;;;7.43;;
12312;SDS011;6220;53.580;9.758;2023-11-18T07:07:15;9.80;;;7.90;;
12312;SDS011;6220;53.580;9.758;2023-11-18T07:09:41;10.30;;;8.27;;
12312;SDS011;6220;53.580;9.758;2023-11-18T07:12:07;11.07;;;8.00;;
12312;SDS011;6220;53.580;9.758;2023-11-18T07:14:33;9.80;;;7.73;;
12312;SDS011;6220;53.580;9.758;2023-11-18T07:16:59;12.00;;;7.50;;
12312;SDS011;6220;53.580;9.758;2023-11-18T07:19:24;9.23;;;7.97;;
12312;SDS011;6220;53.580;9.758;2023-11-18T07:21:53;10.03;;;7.80;;
12312;SDS011;6220;53.580;9.758;2023-11-18T07:24:18;9.03;;;7.33;;
12312;SDS011;6220;53.580;9.758;2023-11-18T07:26:45;10.13;;;7.77;;
12312;SDS011;6220;53.580;9.758;2023-11-18T07:29:10;9.07;;;7.63;;
12312;SDS011;6220;53.580;9.758;2023-11-18T07:31:36;9.97;;;8.00;;
12312;SDS011;6220;53.580;9.758;2023-11-18T07:34:05;10.40;;;7.80;;
12312;SDS011;6220;53.580;9.758;2023-11-18T07:36:31;9.90;;;7.70;;
12312;SDS011;6220;53.580;9.758;2023-11-18T07:38:57;9.70;;;7.43;;
12312;SDS011;6220;53.580;9.758;2023-11-18T07:41:25;8.97;;;7.50;;
12312;SDS011;6220;53.580;9.758;2023-11-18T07:43:55;8.90;;;7.20;;
12312;SDS011;6220;53.580;9.758;2023-11-18T07:46:22;9.17;;;7.33;;
12312;SDS011;6220;53.580;9.758;2023-11-18T07:48:48;10.17;;;7.03;;
12312;SDS011;6220;53.580;9.758;2023-11-18T07:51:14;7.80;;;7.00;;
12312;SDS011;6220;53.580;9.758;2023-11-18T07:53:40;7.73;;;6.33;;
12312;SDS011;6220;53.580;9.758;2023-11-18T07:56:06;8.07;;;6.03;;
12312;SDS011;6220;53.580;9.758;2023-11-18T07:58:33;8.17;;;6.17;;
12312;SDS011;6220;53.580;9.758;2023-11-18T08:01:02;7.77;;;6.60;;
12312;SDS011;6220;53.580;9.758;2023-11-18T08:03:29;8.43;;;5.90;;
12312;SDS011;6220;53.580;9.758;2023-11-18T08:05:56;8.07;;;6.47;;
12312;SDS011;6220;53.580;9.758;2023-11-18T08:08:23;8.53;;;6.30;;
12312;SDS011;6220;53.580;9.758;2023-11-18T08:10:48;7.77;;;6.43;;
12312;SDS011;6220;53.580;9.758;2023-11-18T08:13:15;7.40;;;6.17;;
12312;SDS011;6220;53.580;9.758;2023-11-18T08:15:41;6.93;;;5.97;;
12312;SDS011;6220;53.580;9.758;2023-11-18T08:18:07;7.63;;;5.87;;
12312;SDS011;6220;53.580;9.758;2023-11-18T08:20:35;6.47;;;5.60;;
12312;SDS011;6220;53.580;9.758;2023-11-18T08:23:00;6.60;;;5.47;;
12312;SDS011;6220;53.580;9.758;2023-11-18T08:25:26;6.67;;;5.93;;
12312;SDS011;6220;53.580;9.758;2023-11-18T08:27:51;6.77;;;5.67;;
12312;SDS011;6220;53.580;9.758;2023-11-18T08:30:17;6.70;;;5.40;;
12312;SDS011;6220;53.580;9.758;2023-11-18T08:32:43;7.40;;;5.90;;
12312;SDS011;6220;53.580;9.758;2023-11-18T08:35:10;6.60;;;5.40;;
12312;SDS011;6220;53.580;9.758;2023-11-18T08:37:39;7.87;;;5.90;;
12312;SDS011;6220;53.580;9.758;2023-11-18T08:40:06;6.87;;;5.60;;
12312;SDS011;6220;53.580;9.758;2023-11-18T08:45:19;6.87;;;5.00;;
12312;SDS011;6220;53.580;9.758;2023-11-18T08:47:46;6.27;;;5.30;;
12312;SDS011;6220;53.580;9.758;2023-11-18T08:50:13;7.93;;;5.27;;
12312;SDS011;6220;53.580;9.758;2023-11-18T08:52:42;6.70;;;4.90;;
12312;SDS011;6220;53.580;9.758;2023-11-18T08:55:12;5.77;;;5.00;;
12312;SDS011;6220;53.580;9.758;2023-11-18T08:57:51;5.93;;;5.23;;
12312;SDS011;6220;53.580;9.758;2023-11-18T09:00:29;5.90;;;5.10;;
12312;SDS011;6220;53.580;9.758;2023-11-18T09:05:50;6.73;;;4.87;;
12312;SDS011;6220;53.580;9.758;2023-11-18T09:08:32;5.67;;;5.03;;
12312;SDS011;6220;53.580;9.758;2023-11-18T09:11:00;5.97;;;5.23;;
12312;SDS011;6220;53.580;9.758;2023-11-18T09:13:32;6.43;;;5.03;;
12312;SDS011;6220;53.580;9.758;2023-11-18T09:16:00;6.30;;;4.83;;
12312;SDS011;6220;53.580;9.758;2023-11-18T09:18:33;5.40;;;4.77;;
12312;SDS011;6220;53.580;9.758;2023-11-18T09:21:00;5.37;;;4.67;;
12312;SDS011;6220;53.580;9.758;2023-11-18T09:23:26;5.70;;;4.60;;
12312;SDS011;6220;53.580;9.758;2023-11-18T09:25:57;6.93;;;4.23;;
12312;SDS011;6220;53.580;9.758;2023-11-18T09:28:28;5.00;;;3.33;;
12312;SDS011;6220;53.580;9.758;2023-11-18T09:30:54;3.30;;;2.93;;
12312;SDS011;6220;53.580;9.758;2023-11-18T09:33:22;3.30;;;2.63;;
12312;SDS011;6220;53.580;9.758;2023-11-18T09:36:01;4.20;;;2.97;;
12312;SDS011;6220;53.580;9.758;2023-11-18T09:38:31;4.63;;;3.23;;
12312;SDS011;6220;53.580;9.758;2023-11-18T09:40:57;4.87;;;3.63;;
12312;SDS011;6220;53.580;9.758;2023-11-18T09:43:35;7.77;;;4.23;;
12312;SDS011;6220;53.580;9.758;2023-11-18T09:46:07;7.83;;;4.63;;
12312;SDS011;6220;53.580;9.758;2023-11-18T09:48:46;6.63;;;4.70;;
12312;SDS011;6220;53.580;9.758;2023-11-18T09:51:22;6.97;;;4.77;;
12312;SDS011;6220;53.580;9.758;2023-11-18T09:53:49;9.93;;;5.63;;
12312;SDS011;6220;53.580;9.758;2023-11-18T09:56:30;6.67;;;4.87;;
12312;SDS011;6220;53.580;9.758;2023-11-18T09:59:11;6.73;;;4.33;;
12312;SDS011;6220;53.580;9.758;2023-11-18T10:01:56;7.27;;;4.10;;
12312;SDS011;6220;53.580;9.758;2023-11-18T10:04:23;7.03;;;4.10;;
12312;SDS011;6220;53.580;9.758;2023-11-18T10:06:53;5.30;;;4.27;;
12312;SDS011;6220;53.580;9.758;2023-11-18T10:09:26;8.00;;;5.07;;
12312;SDS011;6220;53.580;9.758;2023-11-18T10:12:05;5.93;;;4.10;;
12312;SDS011;6220;53.580;9.758;2023-11-18T10:14:41;6.40;;;4.60;;
12312;SDS011;6220;53.580;9.758;2023-11-18T10:17:08;4.77;;;4.03;;
12312;SDS011;6220;53.580;9.758;2023-11-18T10:19:50;5.03;;;4.40;;
12312;SDS011;6220;53.580;9.758;2023-11-18T10:22:22;4.73;;;4.23;;
12312;SDS011;6220;53.580;9.758;2023-11-18T10:24:49;5.27;;;3.97;;
12312;SDS011;6220;53.580;9.758;2023-11-18T10:27:19;6.87;;;4.50;;
12312;SDS011;6220;53.580;9.758;2023-11-18T10:30:06;5.63;;;4.23;;
12312;SDS011;6220;53.580;9.758;2023-11-18T10:32:44;4.63;;;4.10;;
12312;SDS011;6220;53.580;9.758;2023-11-18T10:35:21;5.47;;;4.10;;
12312;SDS011;6220;53.580;9.758;2023-11-18T10:37:46;5.73;;;4.53;;
12312;SDS011;6220;53.580;9.758;2023-11-18T10:40:12;5.63;;;3.70;;
12312;SDS011;6220;53.580;9.758;2023-11-18T10:42:40;4.77;;;4.10;;
12312;SDS011;6220;53.580;9.758;2023-11-18T10:45:07;4.73;;;4.00;;
12312;SDS011;6220;53.580;9.758;2023-11-18T10:47:33;6.40;;;3.80;;
12312;SDS011;6220;53.580;9.758;2023-11-18T10:50:00;5.47;;;3.90;;
12312;SDS011;6220;53.580;9.758;2023-11-18T10:52:26;6.00;;;3.50;;
12312;SDS011;6220;53.580;9.758;2023-11-18T10:54:56;5.10;;;3.47;;
12312;SDS011;6220;53.580;9.758;2023-11-18T10:57:21;3.47;;;3.17;;
12312;SDS011;6220;53.580;9.758;2023-11-18T10:59:59;3.47;;;3.07;;
12312;SDS011;6220;53.580;9.758;2023-11-18T11:02:27;3.90;;;3.50;;
12312;SDS011;6220;53.580;9.758;2023-11-18T11:04:59;4.13;;;3.50;;
12312;SDS011;6220;53.580;9.758;2023-11-18T11:07:25;4.10;;;3.70;;
12312;SDS011;6220;53.580;9.758;2023-11-18T11:09:51;4.37;;;3.97;;
12312;SDS011;6220;53.580;9.758;2023-11-18T11:12:21;5.87;;;4.17;;
12312;SDS011;6220;53.580;9.758;2023-11-18T11:15:08;4.13;;;3.63;;
12312;SDS011;6220;53.580;9.758;2023-11-18T11:17:46;5.73;;;4.07;;
12312;SDS011;6220;53.580;9.758;2023-11-18T11:20:13;4.63;;;4.07;;
12312;SDS011;6220;53.580;9.758;2023-11-18T11:22:56;7.13;;;3.80;;
12312;SDS011;6220;53.580;9.758;2023-11-18T11:28:20;6.40;;;4.20;;
12312;SDS011;6220;53.580;9.758;2023-11-18T11:30:50;5.03;;;4.53;;
12312;SDS011;6220;53.580;9.758;2023-11-18T11:33:29;8.47;;;4.57;;
12312;SDS011;6220;53.580;9.758;2023-11-18T11:36:07;6.03;;;4.47;;
12312;SDS011;6220;53.580;9.758;2023-11-18T11:38:36;8.97;;;4.73;;
12312;SDS011;6220;53.580;9.758;2023-11-18T11:41:02;6.47;;;5.00;;
12312;SDS011;6220;53.580;9.758;2023-11-18T11:43:30;9.43;;;4.93;;
12312;SDS011;6220;53.580;9.758;2023-11-18T11:45:59;6.20;;;4.97;;
12312;SDS011;6220;53.580;9.758;2023-11-18T11:48:28;6.43;;;4.87;;
12312;SDS011;6220;53.580;9.758;2023-11-18T11:56:41;5.80;;;5.20;;
12312;SDS011;6220;53.580;9.758;2023-11-18T12:02:12;6.07;;;5.37;;
12312;SDS011;6220;53.580;9.758;2023-11-18T12:04:45;6.50;;;5.63;;
12312;SDS011;6220;53.580;9.758;2023-11-18T12:07:32;5.60;;;5.03;;
12312;SDS011;6220;53.580;9.758;2023-11-18T12:10:07;6.00;;;5.30;;
12312;SDS011;6220;53.580;9.758;2023-11-18T12:12:38;6.03;;;5.00;;
12312;SDS011;6220;53.580;9.758;2023-11-18T12:15:04;6.07;;;5.10;;
12312;SDS011;6220;53.580;9.758;2023-11-18T12:20:40;5.83;;;4.57;;
12312;SDS011;6220;53.580;9.758;2023-11-18T12:23:23;5.87;;;5.00;;
12312;SDS011;6220;53.580;9.758;2023-11-18T12:25:52;5.53;;;5.00;;
12312;SDS011;6220;53.580;9.758;2023-11-18T12:28:25;5.53;;;4.93;;
12312;SDS011;6220;53.580;9.758;2023-11-18T12:30:55;5.50;;;4.63;;
12312;SDS011;6220;53.580;9.758;2023-11-18T12:33:51;6.63;;;4.80;;
12312;SDS011;6220;53.580;9.758;2023-11-18T12:36:44;5.53;;;4.90;;
12312;SDS011;6220;53.580;9.758;2023-11-18T12:41:43;4.30;;;3.90;;
12312;SDS011;6220;53.580;9.758;2023-11-18T12:44:29;4.77;;;3.80;;
12312;SDS011;6220;53.580;9.758;2023-11-18T12:47:02;5.10;;;3.77;;
12312;SDS011;6220;53.580;9.758;2023-11-18T12:49:43;3.70;;;3.30;;
12312;SDS011;6220;53.580;9.758;2023-11-18T12:52:10;8.83;;;5.57;;
12312;SDS011;6220;53.580;9.758;2023-11-18T12:54:37;16.67;;;8.63;;
12312;SDS011;6220;53.580;9.758;2023-11-18T12:57:04;5.90;;;4.13;;
12312;SDS011;6220;53.580;9.758;2023-11-18T12:59:35;6.90;;;4.00;;
12312;SDS011;6220;53.580;9.758;2023-11-18T13:02:02;4.20;;;3.50;;
12312;SDS011;6220;53.580;9.758;2023-11-18T13:04:32;4.40;;;3.40;;
12312;SDS011;6220;53.580;9.758;2023-11-18T13:06:59;4.47;;;3.27;;
12312;SDS011;6220;53.580;9.758;2023-11-18T13:09:25;4.93;;;3.20;;
12312;SDS011;6220;53.580;9.758;2023-11-18T13:11:55;3.60;;;3.27;;
12312;SDS011;6220;53.580;9.758;2023-11-18T13:14:27;3.83;;;3.43;;
12312;SDS011;6220;53.580;9.758;2023-11-18T13:16:53;4.90;;;3.50;;
12312;SDS011;6220;53.580;9.758;2023-11-18T13:19:28;3.97;;;3.10;;
12312;SDS011;6220;53.580;9.758;2023-11-18T13:22:01;4.30;;;3.73;;
12312;SDS011;6220;53.580;9.758;2023-11-18T13:24:33;4.57;;;3.53;;
12312;SDS011;6220;53.580;9.758;2023-11-18T13:27:05;4.17;;;3.17;;
12312;SDS011;6220;53.580;9.758;2023-11-18T13:29:37;3.17;;;2.70;;
12312;SDS011;6220;53.580;9.758;2023-11-18T13:32:04;3.77;;;3.00;;
12312;SDS011;6220;53.580;9.758;2023-11-18T13:34:32;4.23;;;3.10;;
12312;SDS011;6220;53.580;9.758;2023-11-18T13:37:03;3.40;;;3.00;;
12312;SDS011;6220;53.580;9.758;2023-11-18T13:39:31;3.20;;;2.73;;
12312;SDS011;6220;53.580;9.758;2023-11-18T13:41:56;5.57;;;3.17;;
12312;SDS011;6220;53.580;9.758;2023-11-18T13:44:32;4.70;;;3.30;;
12312;SDS011;6220;53.580;9.758;2023-11-18T13:47:03;3.53;;;3.23;;
12312;SDS011;6220;53.580;9.758;2023-11-18T13:49:30;3.90;;;3.27;;
12312;SDS011;6220;53.580;9.758;2023-11-18T13:51:56;6.13;;;3.27;;
12312;SDS011;6220;53.580;9.758;2023-11-18T13:54:22;3.90;;;3.50;;
12312;SDS011;6220;53.580;9.758;2023-11-18T13:56:50;3.70;;;3.30;;
12312;SDS011;6220;53.580;9.758;2023-11-18T13:59:16;3.93;;;3.27;;
12312;SDS011;6220;53.580;9.758;2023-11-18T14:01:42;4.73;;;3.13;;
12312;SDS011;6220;53.580;9.758;2023-11-18T14:04:09;3.43;;;3.10;;
12312;SDS011;6220;53.580;9.758;2023-11-18T14:06:35;4.30;;;3.90;;
12312;SDS011;6220;53.580;9.758;2023-11-18T14:09:02;3.87;;;3.57;;
12312;SDS011;6220;53.580;9.758;2023-11-18T14:11:29;4.83;;;3.57;;
12312;SDS011;6220;53.580;9.758;2023-11-18T14:13:54;4.60;;;3.60;;
12312;SDS011;6220;53.580;9.758;2023-11-18T14:16:20;4.70;;;4.07;;
12312;SDS011;6220;53.580;9.758;2023-11-18T14:18:48;4.20;;;3.80;;
12312;SDS011;6220;53.580;9.758;2023-11-18T14:21:14;4.67;;;3.90;;
12312;SDS011;6220;53.580;9.758;2023-11-18T14:23:39;5.80;;;4.03;;
12312;SDS011;6220;53.580;9.758;2023-11-18T14:26:05;5.13;;;3.97;;
12312;SDS011;6220;53.580;9.758;2023-11-18T14:28:32;6.10;;;3.93;;
12312;SDS011;6220;53.580;9.758;2023-11-18T14:30:59;5.93;;;3.87;;
12312;SDS011;6220;53.580;9.758;2023-11-18T14:33:25;5.87;;;4.60;;
12312;SDS011;6220;53.580;9.758;2023-11-18T14:35:50;5.37;;;4.40;;
12312;SDS011;6220;53.580;9.758;2023-11-18T14:38:16;6.30;;;4.47;;
12312;SDS011;6220;53.580;9.758;2023-11-18T14:40:45;6.40;;;4.53;;
12312;SDS011;6220;53.580;9.758;2023-11-18T14:43:12;4.83;;;4.20;;
12312;SDS011;6220;53.580;9.758;2023-11-18T14:45:39;7.07;;;4.07;;
12312;SDS011;6220;53.580;9.758;2023-11-18T14:48:05;5.83;;;4.27;;
12312;SDS011;6220;53.580;9.758;2023-11-18T14:50:32;6.60;;;4.30;;
12312;SDS011;6220;53.580;9.758;2023-11-18T14:53:00;5.03;;;4.10;;
12312;SDS011;6220;53.580;9.758;2023-11-18T14:55:29;4.70;;;3.93;;
12312;SDS011;6220;53.580;9.758;2023-11-18T14:57:55;5.90;;;4.60;;
12312;SDS011;6220;53.580;9.758;2023-11-18T15:00:20;6.37;;;4.50;;
12312;SDS011;6220;53.580;9.758;2023-11-18T15:02:52;4.47;;;4.07;;
12312;SDS011;6220;53.580;9.758;2023-11-18T15:05:19;4.97;;;4.20;;
12312;SDS011;6220;53.580;9.758;2023-11-18T15:07:49;6.97;;;4.40;;
12312;SDS011;6220;53.580;9.758;2023-11-18T15:10:21;6.30;;;4.00;;
12312;SDS011;6220;53.580;9.758;2023-11-18T15:12:48;11.80;;;7.17;;
12312;SDS011;6220;53.580;9.758;2023-11-18T15:15:23;10.87;;;6.53;;
12312;SDS011;6220;53.580;9.758;2023-11-18T15:17:57;10.53;;;7.10;;
12312;SDS011;6220;53.580;9.758;2023-11-18T15:20:23;11.27;;;7.07;;
12312;SDS011;6220;53.580;9.758;2023-11-18T15:22:55;8.53;;;6.47;;
12312;SDS011;6220;53.580;9.758;2023-11-18T15:25:21;8.80;;;6.60;;
12312;SDS011;6220;53.580;9.758;2023-11-18T15:27:47;13.80;;;8.50;;
12312;SDS011;6220;53.580;9.758;2023-11-18T15:30:16;12.03;;;8.17;;
12312;SDS011;6220;53.580;9.758;2023-11-18T15:32:43;9.63;;;7.40;;
12312;SDS011;6220;53.580;9.758;2023-11-18T15:35:10;11.80;;;8.33;;